Time;durP1;ratioP1;P1;durP2;ratioP2;P2;SDS_P1;SDS_P2;PMS_P1;PMS_P2;Temp;Humidity;BMP_temperature;BMP_pressure;BME280_temperature;BME280_humidity;BME280_pressure;Samples;Min_cycle;Max_cycle;Signal;HPM_P1;HPM_P2
2021/04/01 00:00:52;;;;;;;14.93;6.50;;;8.90;92.30;;;;;;5077490;28;20178;-61
2021/04/01 00:03:18;;;;;;;9.80;6.17;;;8.90;92.50;;;;;;5079139;28;20170;-64
2021/04/01 00:05:44;;;;;;;17.10;5.53;;;8.90;92.60;;;;;;5087021;28;20625;-62
2021/04/01 00:08:10;;;;;;;17.00;6.73;;;8.80;92.70;;;;;;5088357;28;20187;-62
2021/04/01 00:10:39;;;;;;;12.30;6.47;;;8.70;92.90;;;;;;5079656;28;20431;-62
2021/04/01 00:13:05;;;;;;;15.57;6.37;;;8.70;93.00;;;;;;5085952;28;20443;-62
2021/04/01 00:15:32;;;;;;;15.60;6.07;;;8.70;93.00;;;;;;5088270;28;20471;-61
2021/04/01 00:17:57;;;;;;;12.10;6.17;;;8.60;93.00;;;;;;5095041;28;20439;-62
2021/04/01 00:20:23;;;;;;;11.97;6.87;;;8.60;93.00;;;;;;5100407;28;20761;-61
2021/04/01 00:22:49;;;;;;;17.87;6.53;;;8.60;93.10;;;;;;5099554;28;20178;-63
2021/04/01 00:25:16;;;;;;;12.17;6.40;;;8.50;93.20;;;;;;5095112;28;20204;-62
2021/04/01 00:27:42;;;;;;;22.03;7.40;;;8.50;93.50;;;;;;5092977;28;20174;-62
2021/04/01 00:30:09;;;;;;;10.20;6.43;;;8.40;93.70;;;;;;5085792;28;20791;-61
2021/04/01 00:32:35;;;;;;;11.90;6.70;;;8.40;94.00;;;;;;5094799;28;20181;-62
2021/04/01 00:35:01;;;;;;;14.20;7.77;;;8.40;94.00;;;;;;5090934;28;21108;-61
2021/04/01 00:37:27;;;;;;;16.17;6.87;;;8.40;94.00;;;;;;5090202;28;20435;-62
2021/04/01 00:39:52;;;;;;;14.30;7.27;;;8.40;94.00;;;;;;5091283;28;20468;-62
2021/04/01 00:42:18;;;;;;;15.10;6.60;;;8.40;94.20;;;;;;5089445;28;20537;-61
2021/04/01 00:44:44;;;;;;;10.43;6.87;;;8.40;94.10;;;;;;5084351;28;20239;-62
2021/04/01 00:47:10;;;;;;;10.00;6.50;;;8.40;94.00;;;;;;5083981;28;20193;-61
2021/04/01 00:49:37;;;;;;;14.00;6.90;;;8.30;93.90;;;;;;5090082;28;20510;-62
2021/04/01 00:52:04;;;;;;;16.20;8.23;;;8.30;93.80;;;;;;5105658;28;21207;-63
2021/04/01 00:54:30;;;;;;;13.53;7.40;;;8.30;93.90;;;;;;5086872;28;20459;-62
2021/04/01 00:56:56;;;;;;;12.90;6.47;;;8.30;93.90;;;;;;5097490;28;20927;-61
2021/04/01 00:59:22;;;;;;;13.60;7.00;;;8.20;93.90;;;;;;5087563;28;20916;-61
2021/04/01 01:04:16;;;;;;;12.63;6.53;;;8.20;94.00;;;;;;5091147;28;20182;-61
2021/04/01 01:06:42;;;;;;;15.23;6.70;;;8.20;94.00;;;;;;5084947;28;20453;-61
2021/04/01 01:09:09;;;;;;;17.77;6.70;;;8.10;94.10;;;;;;5093462;28;20201;-62
2021/04/01 01:11:35;;;;;;;13.10;5.90;;;8.10;94.10;;;;;;5090426;28;20192;-61
2021/04/01 01:14:03;;;;;;;11.33;7.30;;;8.10;94.20;;;;;;5086985;28;20830;-61
2021/04/01 01:16:29;;;;;;;13.00;6.70;;;8.00;94.40;;;;;;5090511;28;20466;-61
2021/04/01 01:18:55;;;;;;;9.43;6.73;;;8.00;94.50;;;;;;5094011;28;20428;-61
2021/04/01 01:21:21;;;;;;;14.67;7.27;;;8.00;94.90;;;;;;5089363;28;20410;-61
2021/04/01 01:23:49;;;;;;;12.57;7.53;;;7.90;94.70;;;;;;5090754;28;20803;-61
2021/04/01 01:26:15;;;;;;;12.67;7.43;;;7.90;94.80;;;;;;5093105;28;20251;-61
2021/04/01 01:28:42;;;;;;;11.27;8.10;;;7.90;94.90;;;;;;5092164;28;20435;-62
2021/04/01 01:31:07;;;;;;;11.50;7.47;;;7.90;95.00;;;;;;5083344;28;20416;-61
2021/04/01 01:33:40;;;;;;;14.83;8.17;;;7.90;95.30;;;;;;5089067;28;20857;-62
2021/04/01 01:36:07;;;;;;;14.33;7.03;;;7.80;95.30;;;;;;5088079;28;20861;-62
2021/04/01 01:38:33;;;;;;;14.30;7.40;;;7.80;95.40;;;;;;5088997;28;20423;-62
2021/04/01 01:40:58;;;;;;;20.60;6.83;;;7.80;95.40;;;;;;5087067;28;20416;-61
2021/04/01 01:43:24;;;;;;;14.73;7.13;;;7.70;95.40;;;;;;5086152;28;20437;-61
2021/04/01 01:45:50;;;;;;;12.40;6.37;;;7.70;95.40;;;;;;5088964;28;20750;-61
2021/04/01 01:48:16;;;;;;;19.73;9.13;;;7.70;95.30;;;;;;5088001;28;20182;-61
2021/04/01 01:50:41;;;;;;;35.33;12.93;;;7.70;95.30;;;;;;5090832;28;20258;-62
2021/04/01 01:53:08;;;;;;;36.20;14.60;;;7.60;95.40;;;;;;5087127;28;20277;-61
2021/04/01 01:55:35;;;;;;;31.33;13.80;;;7.60;95.50;;;;;;5088526;28;20216;-63
2021/04/01 01:58:01;;;;;;;31.90;14.50;;;7.60;95.60;;;;;;5098579;28;21003;-61
2021/04/01 02:00:42;;;;;;;23.93;13.17;;;7.60;95.70;;;;;;5095566;28;20700;-61
2021/04/01 02:03:08;;;;;;;34.27;15.50;;;7.60;95.70;;;;;;5071047;28;20968;-63
2021/04/01 02:05:36;;;;;;;26.90;12.30;;;7.50;95.70;;;;;;5079661;28;20468;-63
2021/04/01 02:08:03;;;;;;;21.10;10.77;;;7.50;95.70;;;;;;5083959;28;20524;-62
2021/04/01 02:10:37;;;;;;;17.10;8.50;;;7.50;95.70;;;;;;5086110;28;20924;-61
2021/04/01 02:13:04;;;;;;;16.27;9.00;;;7.40;95.70;;;;;;5074255;28;20463;-60
2021/04/01 02:15:41;;;;;;;18.60;8.43;;;7.40;95.80;;;;;;5084783;28;20470;-62
2021/04/01 02:18:16;;;;;;;18.90;7.23;;;7.40;95.90;;;;;;5088486;28;20492;-61
2021/04/01 02:20:48;;;;;;;17.30;7.73;;;7.40;95.90;;;;;;5080298;28;20434;-61
2021/04/01 02:23:15;;;;;;;13.07;7.83;;;7.30;95.90;;;;;;5087848;28;20719;-61
2021/04/01 02:25:42;;;;;;;17.27;7.40;;;7.30;96.00;;;;;;5087736;28;20455;-61
2021/04/01 02:28:09;;;;;;;10.03;7.23;;;7.30;96.00;;;;;;5090379;28;20446;-61
2021/04/01 02:30:36;;;;;;;10.83;7.00;;;7.30;96.00;;;;;;5086259;28;21006;-61
2021/04/01 02:33:02;;;;;;;17.60;6.60;;;7.20;96.10;;;;;;5088007;28;20436;-63
2021/04/01 02:35:28;;;;;;;11.27;7.63;;;7.20;96.20;;;;;;5087372;28;20546;-61
2021/04/01 02:37:54;;;;;;;19.53;7.97;;;7.10;96.30;;;;;;5088833;28;20847;-62
2021/04/01 02:40:20;;;;;;;13.30;8.53;;;7.10;96.30;;;;;;5089785;28;20673;-61
2021/04/01 02:42:45;;;;;;;11.87;7.80;;;7.10;96.60;;;;;;5078519;28;20185;-61
2021/04/01 02:45:13;;;;;;;14.43;7.60;;;7.10;96.70;;;;;;5083625;28;20182;-62
2021/04/01 02:47:39;;;;;;;12.13;7.47;;;7.10;96.80;;;;;;5087451;28;20246;-61
2021/04/01 02:50:06;;;;;;;12.93;7.30;;;7.10;96.80;;;;;;5090230;28;20463;-61
2021/04/01 02:52:31;;;;;;;11.93;8.03;;;7.00;96.70;;;;;;5092969;28;20981;-63
2021/04/01 02:54:57;;;;;;;12.90;7.70;;;7.00;96.80;;;;;;5096958;28;20519;-60
2021/04/01 02:57:23;;;;;;;13.03;7.13;;;7.00;96.70;;;;;;5089333;28;20184;-60
2021/04/01 02:59:49;;;;;;;13.63;7.53;;;6.90;96.90;;;;;;5083777;28;20265;-59
2021/04/01 03:02:16;;;;;;;16.40;7.80;;;6.90;97.10;;;;;;5085421;28;20452;-60
2021/04/01 03:04:42;;;;;;;15.10;8.27;;;6.90;97.20;;;;;;5087477;28;20178;-61
2021/04/01 03:07:08;;;;;;;12.60;8.00;;;6.90;97.20;;;;;;5085997;28;20479;-61
2021/04/01 03:09:34;;;;;;;17.10;7.40;;;6.90;97.10;;;;;;5083742;28;20520;-60
2021/04/01 03:12:01;;;;;;;13.40;7.80;;;6.80;97.00;;;;;;5092246;28;20450;-60
2021/04/01 03:14:27;;;;;;;17.67;8.63;;;6.80;97.00;;;;;;5091074;28;20455;-61
2021/04/01 03:16:52;;;;;;;14.37;7.30;;;6.80;97.10;;;;;;5082255;28;20471;-59
2021/04/01 03:19:19;;;;;;;11.60;7.17;;;6.80;97.20;;;;;;5085821;28;20389;-59
2021/04/01 03:21:45;;;;;;;17.37;7.83;;;6.70;97.30;;;;;;5088010;28;20177;-62
2021/04/01 03:24:12;;;;;;;13.20;7.40;;;6.70;97.40;;;;;;5089033;28;20450;-59
2021/04/01 03:26:38;;;;;;;14.87;7.83;;;6.70;97.40;;;;;;5086644;28;20569;-60
2021/04/01 03:29:03;;;;;;;21.23;8.77;;;6.70;97.50;;;;;;5088494;28;20428;-60
2021/04/01 03:31:29;;;;;;;13.60;7.30;;;6.70;97.50;;;;;;5088070;28;20174;-61
2021/04/01 03:33:55;;;;;;;12.93;7.97;;;6.70;97.50;;;;;;5086437;28;20190;-59
2021/04/01 03:36:21;;;;;;;17.90;7.93;;;6.60;97.50;;;;;;5075521;28;20211;-59
2021/04/01 03:38:47;;;;;;;13.53;7.93;;;6.60;97.50;;;;;;5088106;28;20178;-60
2021/04/01 03:41:13;;;;;;;16.50;8.40;;;6.60;97.60;;;;;;5088952;28;20795;-61
2021/04/01 03:43:39;;;;;;;12.90;7.20;;;6.60;97.50;;;;;;5082004;28;20432;-59
2021/04/01 03:46:05;;;;;;;18.03;8.00;;;6.60;97.40;;;;;;5086162;28;20197;-59
2021/04/01 03:48:31;;;;;;;11.90;7.83;;;6.60;97.50;;;;;;5105330;28;20435;-61
2021/04/01 03:50:57;;;;;;;15.50;7.60;;;6.50;97.60;;;;;;5086849;28;20440;-60
2021/04/01 03:53:22;;;;;;;13.00;8.43;;;6.50;97.60;;;;;;5087549;28;20182;-60
2021/04/01 03:55:49;;;;;;;19.60;7.60;;;6.50;98.10;;;;;;5085970;28;20205;-60
2021/04/01 04:00:49;;;;;;;15.70;7.40;;;6.40;98.00;;;;;;5082968;28;20500;-60
2021/04/01 04:13:34;;;;;;;18.93;8.37;;;6.30;98.40;;;;;;5082510;28;20861;-60
2021/04/01 04:16:00;;;;;;;11.60;7.20;;;6.20;98.40;;;;;;5087996;28;20254;-61
2021/04/01 04:18:25;;;;;;;12.50;8.40;;;6.20;98.50;;;;;;5081186;28;20427;-60
2021/04/01 04:20:51;;;;;;;17.70;8.40;;;6.20;98.60;;;;;;5084770;28;20428;-60
2021/04/01 04:23:19;;;;;;;14.27;8.07;;;6.20;98.50;;;;;;5088629;28;20174;-60
2021/04/01 04:25:44;;;;;;;15.40;7.83;;;6.10;98.60;;;;;;5083591;28;20211;-60
2021/04/01 04:28:32;;;;;;;11.83;7.60;;;6.10;98.50;;;;;;5080094;28;20492;-61
2021/04/01 04:30:58;;;;;;;15.60;8.00;;;6.10;98.40;;;;;;5085296;28;20181;-61
2021/04/01 04:33:24;;;;;;;17.10;8.10;;;6.00;98.50;;;;;;5085457;28;20516;-60
2021/04/01 04:35:49;;;;;;;16.03;8.63;;;6.00;98.80;;;;;;5086424;28;21001;-60
2021/04/01 04:38:15;;;;;;;14.83;7.80;;;6.00;98.90;;;;;;5084806;28;20181;-60
2021/04/01 04:40:41;;;;;;;14.63;7.03;;;6.00;98.80;;;;;;5077985;28;20189;-60
2021/04/01 04:43:07;;;;;;;13.67;8.40;;;6.00;98.90;;;;;;5085174;28;20178;-60
2021/04/01 04:45:33;;;;;;;15.70;9.13;;;6.00;98.80;;;;;;5086143;28;20466;-60
2021/04/01 04:47:58;;;;;;;13.63;9.07;;;6.00;98.90;;;;;;5086354;28;20189;-60
2021/04/01 04:50:24;;;;;;;17.53;9.43;;;6.00;98.80;;;;;;5084673;28;20597;-66
2021/04/01 04:52:50;;;;;;;21.20;9.53;;;5.90;98.80;;;;;;5085988;28;20200;-60
2021/04/01 04:55:17;;;;;;;16.33;9.97;;;6.00;98.90;;;;;;5084468;28;20262;-60
2021/04/01 05:05:25;;;;;;;21.30;9.20;;;5.90;99.00;;;;;;5089331;28;20457;-60
2021/04/01 05:07:50;;;;;;;15.37;8.40;;;5.90;99.00;;;;;;5087333;28;20523;-60
2021/04/01 05:10:16;;;;;;;15.93;9.50;;;5.90;99.20;;;;;;5085614;28;20451;-61
2021/04/01 05:12:52;;;;;;;16.73;9.43;;;5.90;99.10;;;;;;5087916;28;20431;-60
2021/04/01 05:15:20;;;;;;;16.40;8.83;;;5.90;99.10;;;;;;5089661;28;20193;-60
2021/04/01 05:17:45;;;;;;;16.53;8.20;;;5.80;99.00;;;;;;5084832;28;20442;-60
2021/04/01 05:20:12;;;;;;;18.63;8.77;;;5.80;99.10;;;;;;5086899;28;20439;-60
2021/04/01 05:23:05;;;;;;;13.93;8.47;;;5.80;99.30;;;;;;5084780;28;20178;-60
2021/04/01 05:25:26;;;;;;;15.20;7.77;;;5.80;99.50;;;;;;5086452;28;20467;-61
2021/04/01 05:27:59;;;;;;;19.00;7.93;;;5.80;99.40;;;;;;5099615;28;20458;-60
2021/04/01 05:30:25;;;;;;;12.47;8.00;;;5.80;99.50;;;;;;5089401;28;20561;-60
2021/04/01 05:32:50;;;;;;;15.13;7.70;;;5.70;99.50;;;;;;5082690;28;20443;-60
2021/04/01 05:35:16;;;;;;;15.63;7.13;;;5.70;99.40;;;;;;5082209;28;20286;-61
2021/04/01 05:37:43;;;;;;;15.20;8.03;;;5.80;99.30;;;;;;5084827;28;20176;-60
2021/04/01 05:40:11;;;;;;;13.10;7.40;;;5.80;99.30;;;;;;5082738;28;20782;-59
2021/04/01 05:42:42;;;;;;;12.20;7.90;;;5.80;99.40;;;;;;5089146;28;20436;-60
2021/04/01 05:47:59;;;;;;;16.33;7.87;;;5.90;99.40;;;;;;5088689;28;20435;-59
2021/04/01 05:59:26;;;;;;;24.40;8.20;;;6.10;98.90;;;;;;5060785;28;20416;-61
2021/04/01 06:04:33;;;;;;;14.73;8.20;;;6.30;98.70;;;;;;5092644;28;20954;-61
2021/04/01 06:07:25;;;;;;;16.83;8.57;;;6.40;98.30;;;;;;5103372;28;20448;-62
2021/04/01 06:09:54;;;;;;;15.80;7.90;;;6.50;98.30;;;;;;5089050;28;21032;-60
2021/04/01 06:12:22;;;;;;;11.90;7.70;;;6.80;98.20;;;;;;5084915;28;20565;-61
2021/04/01 06:15:00;;;;;;;15.93;7.90;;;7.10;97.30;;;;;;5085850;28;20467;-60
2021/04/01 06:17:28;;;;;;;10.60;6.87;;;7.20;96.80;;;;;;5085937;28;20797;-60
2021/04/01 06:20:05;;;;;;;14.00;7.70;;;7.20;96.80;;;;;;5087480;28;20432;-61
2021/04/01 06:22:31;;;;;;;13.70;7.27;;;7.30;96.90;;;;;;5081403;28;20527;-60
2021/04/01 06:24:58;;;;;;;15.93;7.60;;;7.30;97.00;;;;;;5082872;28;20843;-60
2021/04/01 06:27:49;;;;;;;18.43;7.50;;;7.30;96.80;;;;;;5077698;28;20442;-59
2021/04/01 06:30:40;;;;;;;15.97;7.77;;;7.40;96.80;;;;;;5084604;28;20436;-61
2021/04/01 06:33:03;;;;;;;20.97;8.73;;;7.50;97.00;;;;;;5079524;28;21074;-61
2021/04/01 06:35:32;;;;;;;16.17;8.40;;;7.50;97.00;;;;;;5081606;28;21039;-61
2021/04/01 06:40:41;;;;;;;19.37;8.00;;;7.60;96.80;;;;;;5091498;28;20455;-61
2021/04/01 06:43:16;;;;;;;12.40;8.43;;;7.70;96.70;;;;;;5095389;28;20522;-66
2021/04/01 06:45:56;;;;;;;14.50;8.73;;;7.80;96.70;;;;;;5100242;28;20442;-61
2021/04/01 06:48:25;;;;;;;19.20;9.27;;;7.90;96.60;;;;;;5103248;28;20436;-66
2021/04/01 06:51:02;;;;;;;24.57;9.10;;;8.00;96.50;;;;;;5105649;28;20432;-62
2021/04/01 06:53:38;;;;;;;22.77;9.00;;;8.10;96.20;;;;;;5100562;28;20439;-62
2021/04/01 06:56:27;;;;;;;25.07;9.60;;;8.20;96.10;;;;;;5111113;28;20482;-61
2021/04/01 06:59:38;;;;;;;17.80;9.10;;;8.30;95.70;;;;;;5083222;28;20432;-61
2021/04/01 07:02:38;;;;;;;29.70;9.13;;;8.40;95.50;;;;;;5081031;28;20436;-62
2021/04/01 07:04:47;;;;;;;29.10;9.53;;;8.50;95.30;;;;;;5085533;28;21045;-61
2021/04/01 07:07:16;;;;;;;35.23;9.90;;;8.60;95.20;;;;;;5085622;28;20513;-62
2021/04/01 07:12:29;;;;;;;23.50;10.23;;;8.80;95.10;;;;;;5081339;28;20465;-62
2021/04/01 07:15:10;;;;;;;27.97;9.90;;;8.90;95.30;;;;;;5093722;28;20487;-60
2021/04/01 07:17:53;;;;;;;30.90;10.77;;;9.00;95.30;;;;;;5074502;28;20433;-61
2021/04/01 07:47:42;;;;;;;15.10;10.03;;;10.20;92.70;;;;;;5077142;28;20482;-62
2021/04/01 07:50:13;;;;;;;21.90;11.10;;;10.30;92.30;;;;;;5079120;28;20463;-61
2021/04/01 07:52:41;;;;;;;27.60;11.37;;;10.50;92.30;;;;;;5083575;28;20432;-61
2021/04/01 07:58:54;;;;;;;22.40;11.53;;;10.80;92.20;;;;;;5081256;28;20442;-61
2021/04/01 08:00:59;;;;;;;31.00;11.63;;;10.90;92.00;;;;;;5070755;28;20980;-62
2021/04/01 08:06:19;;;;;;;28.07;11.47;;;11.30;91.20;;;;;;5077128;28;20510;-62
2021/04/01 08:08:46;;;;;;;30.70;12.20;;;11.50;90.30;;;;;;5076879;28;20437;-62
2021/04/01 08:11:24;;;;;;;25.27;11.53;;;11.60;89.30;;;;;;5075023;28;20436;-62
2021/04/01 08:14:01;;;;;;;24.30;11.00;;;11.80;88.50;;;;;;5077683;28;22544;-63
2021/04/01 08:16:28;;;;;;;22.37;10.37;;;11.90;87.20;;;;;;5082010;28;20444;-61
2021/04/01 08:18:59;;;;;;;19.97;10.07;;;12.00;85.20;;;;;;5077560;28;20424;-61
2021/04/01 08:21:26;;;;;;;24.90;11.57;;;12.20;85.50;;;;;;5076541;28;20413;-63
2021/04/01 08:24:03;;;;;;;27.37;10.73;;;12.40;85.40;;;;;;5078844;28;20420;-62
2021/04/01 08:34:19;;;;;;;18.27;10.47;;;12.90;86.00;;;;;;5076125;28;20488;-61
2021/04/01 08:36:50;;;;;;;23.67;10.60;;;13.10;85.80;;;;;;5082219;28;20590;-61
2021/04/01 08:39:18;;;;;;;25.70;10.17;;;13.30;85.40;;;;;;5082158;28;20446;-61
2021/04/01 08:42:14;;;;;;;20.80;11.00;;;13.40;83.70;;;;;;5083079;28;20439;-62
2021/04/01 08:45:23;;;;;;;24.13;9.77;;;13.60;83.20;;;;;;5081120;28;20439;-62
2021/04/01 08:48:17;;;;;;;17.53;9.87;;;13.80;84.20;;;;;;5101855;27;20440;-61
2021/04/01 08:51:02;;;;;;;21.57;9.40;;;14.10;79.60;;;;;;5080490;28;20413;-61
2021/04/01 08:53:43;;;;;;;26.13;10.57;;;14.20;80.30;;;;;;5078404;28;20435;-61
2021/04/01 08:56:31;;;;;;;19.43;10.87;;;14.50;80.60;;;;;;5079605;28;20485;-61
2021/04/01 08:59:25;;;;;;;27.53;11.23;;;14.70;76.90;;;;;;5079069;28;20899;-61
2021/04/01 09:01:55;;;;;;;18.43;8.97;;;14.80;72.60;;;;;;5078324;28;21162;-61
2021/04/01 09:04:23;;;;;;;20.93;9.07;;;15.00;71.40;;;;;;5077398;28;20423;-61
2021/04/01 09:06:53;;;;;;;26.93;10.30;;;15.30;69.30;;;;;;5080920;28;20444;-63
2021/04/01 09:09:30;;;;;;;29.73;7.93;;;15.50;68.20;;;;;;5075820;28;20431;-61
2021/04/01 09:12:14;;;;;;;17.50;7.30;;;15.70;67.00;;;;;;5081694;28;20442;-64
2021/04/01 09:14:48;;;;;;;22.67;7.30;;;16.00;62.20;;;;;;5075388;28;21609;-61
2021/04/01 09:17:15;;;;;;;12.60;7.30;;;16.30;59.30;;;;;;5076353;28;21777;-63
2021/04/01 09:19:43;;;;;;;24.50;7.47;;;16.50;58.40;;;;;;5087039;28;20518;-65
2021/04/01 09:22:25;;;;;;;14.03;7.23;;;16.80;59.40;;;;;;5077794;28;20500;-64
2021/04/01 09:24:54;;;;;;;22.30;7.67;;;17.00;57.80;;;;;;5087781;28;20432;-62
2021/04/01 09:27:20;;;;;;;18.97;5.73;;;17.20;56.70;;;;;;5076571;28;20964;-62
2021/04/01 09:29:46;;;;;;;13.00;6.57;;;17.40;55.20;;;;;;5084910;28;20817;-62
2021/04/01 09:32:13;;;;;;;10.03;5.23;;;17.70;54.40;;;;;;5080737;28;20177;-62
2021/04/01 09:34:40;;;;;;;9.17;4.13;;;17.90;52.10;;;;;;5086180;28;20678;-61
2021/04/01 09:37:15;;;;;;;16.97;4.60;;;18.10;50.40;;;;;;5077568;28;20692;-61
2021/04/01 09:39:41;;;;;;;7.37;3.93;;;18.30;47.70;;;;;;5068507;28;20487;-64
2021/04/01 09:42:12;;;;;;;7.47;3.63;;;18.40;46.70;;;;;;5074768;28;21778;-63
2021/04/01 09:44:59;;;;;;;8.03;3.90;;;18.60;45.60;;;;;;5075667;28;21009;-65
2021/04/01 09:47:35;;;;;;;8.97;3.57;;;18.70;45.30;;;;;;5074749;28;20467;-61
2021/04/01 09:50:05;;;;;;;7.90;3.60;;;19.00;45.20;;;;;;5069676;28;20459;-63
2021/04/01 09:52:31;;;;;;;11.60;3.53;;;19.20;44.10;;;;;;5073790;28;21035;-62
2021/04/01 09:55:00;;;;;;;10.60;3.50;;;19.40;42.50;;;;;;5077624;28;20501;-61
2021/04/01 09:57:38;;;;;;;10.03;3.70;;;19.50;43.10;;;;;;5095019;28;20452;-62
2021/04/01 10:00:16;;;;;;;8.17;3.50;;;19.60;42.70;;;;;;5087424;28;20424;-62
2021/04/01 10:02:48;;;;;;;11.30;3.50;;;19.80;41.60;;;;;;5090748;28;20428;-62
2021/04/01 10:05:20;;;;;;;19.53;3.67;;;19.90;41.40;;;;;;5089252;28;20414;-62
2021/04/01 10:07:57;;;;;;;8.70;3.60;;;20.10;41.60;;;;;;5088882;28;20510;-62
2021/04/01 10:10:43;;;;;;;5.77;3.60;;;20.30;41.60;;;;;;5086981;28;20434;-63
2021/04/01 10:13:16;;;;;;;4.10;3.27;;;20.40;40.80;;;;;;5083154;28;20454;-62
2021/04/01 10:15:42;;;;;;;8.37;3.93;;;20.70;41.00;;;;;;5090328;28;20470;-61
2021/04/01 10:18:10;;;;;;;9.30;3.70;;;20.80;40.10;;;;;;5089556;28;20838;-62
2021/04/01 10:20:36;;;;;;;11.03;4.03;;;20.90;40.00;;;;;;5084195;28;20600;-61
2021/04/01 10:23:07;;;;;;;8.77;4.03;;;21.00;38.70;;;;;;5089676;28;20483;-61
2021/04/01 10:25:47;;;;;;;8.97;4.07;;;21.00;37.80;;;;;;5088066;28;20193;-63
2021/04/01 10:28:27;;;;;;;13.20;5.13;;;21.10;37.80;;;;;;5088564;28;20792;-62
2021/04/01 10:30:55;;;;;;;11.67;5.60;;;21.20;38.30;;;;;;5081436;28;20424;-61
2021/04/01 10:33:33;;;;;;;12.30;6.03;;;21.40;39.40;;;;;;5087244;28;20576;-63
2021/04/01 10:36:05;;;;;;;11.10;4.80;;;21.60;40.20;;;;;;5080035;28;20462;-62
2021/04/01 10:38:35;;;;;;;12.87;4.83;;;21.80;39.10;;;;;;5087901;28;20432;-63
2021/04/01 10:41:10;;;;;;;9.57;5.00;;;21.90;39.50;;;;;;5089334;28;20438;-63
2021/04/01 10:43:41;;;;;;;9.23;4.57;;;22.20;39.30;;;;;;5081190;28;20427;-63
2021/04/01 10:46:19;;;;;;;12.30;4.83;;;22.40;39.20;;;;;;5088216;28;20453;-63
2021/04/01 10:48:53;;;;;;;10.73;4.40;;;22.50;38.60;;;;;;5089405;28;20384;-64
2021/04/01 10:51:22;;;;;;;12.97;4.77;;;22.60;39.30;;;;;;5083129;28;21215;-63
2021/04/01 10:53:47;;;;;;;11.40;4.57;;;22.40;38.50;;;;;;5077043;28;20857;-63
2021/04/01 10:56:15;;;;;;;10.33;3.97;;;22.20;37.10;;;;;;5068537;28;20470;-60
2021/04/01 10:58:47;;;;;;;6.00;3.93;;;22.00;37.30;;;;;;5066221;28;20266;-60
2021/04/01 11:01:14;;;;;;;11.20;4.60;;;22.10;37.30;;;;;;5077569;28;20458;-58
2021/04/01 11:03:48;;;;;;;14.53;4.57;;;22.00;37.40;;;;;;5071805;28;20428;-57
2021/04/01 11:06:16;;;;;;;11.03;4.70;;;22.00;37.80;;;;;;5073569;28;20452;-61
2021/04/01 11:08:44;;;;;;;8.83;4.43;;;21.80;38.20;;;;;;5073094;28;20831;-60
2021/04/01 11:11:11;;;;;;;11.60;4.80;;;21.80;38.90;;;;;;5071166;28;20432;-62
2021/04/01 11:13:44;;;;;;;6.43;4.40;;;21.90;39.20;;;;;;5071689;28;20432;-62
2021/04/01 11:16:14;;;;;;;6.67;3.87;;;22.20;38.60;;;;;;5069251;28;20467;-63
2021/04/01 11:18:45;;;;;;;9.17;4.03;;;22.50;37.60;;;;;;5075029;28;20467;-62
2021/04/01 11:21:13;;;;;;;9.17;4.57;;;22.70;36.80;;;;;;5078932;28;20454;-59
2021/04/01 11:23:39;;;;;;;17.20;5.23;;;22.80;35.30;;;;;;5077743;28;20443;-59
2021/04/01 11:26:05;;;;;;;6.03;4.13;;;22.80;35.30;;;;;;5077738;28;20444;-61
2021/04/01 11:28:37;;;;;;;6.67;4.30;;;22.80;36.10;;;;;;5080253;28;20435;-58
2021/04/01 11:31:04;;;;;;;8.37;4.37;;;22.80;36.10;;;;;;5079489;28;20446;-58
2021/04/01 11:33:30;;;;;;;9.70;4.77;;;23.00;34.90;;;;;;5077348;28;20436;-60
2021/04/01 11:36:20;;;;;;;8.30;4.20;;;23.10;35.50;;;;;;5077444;28;20940;-63
2021/04/01 11:38:54;;;;;;;9.50;4.33;;;23.20;35.70;;;;;;5078408;28;20448;-60
2021/04/01 11:41:23;;;;;;;7.50;4.67;;;23.30;35.40;;;;;;5081689;28;20435;-61
2021/04/01 11:43:51;;;;;;;8.67;4.07;;;23.50;35.50;;;;;;5073910;28;20428;-62
2021/04/01 11:46:25;;;;;;;21.30;4.90;;;23.60;35.50;;;;;;5073038;28;20542;-62
2021/04/01 11:48:52;;;;;;;11.27;4.10;;;23.70;35.80;;;;;;5077537;28;20416;-64
2021/04/01 11:51:23;;;;;;;13.53;4.40;;;23.90;34.10;;;;;;5075586;28;20951;-60
2021/04/01 11:53:49;;;;;;;6.80;4.20;;;24.00;34.30;;;;;;5076744;28;20994;-61
2021/04/01 11:56:15;;;;;;;10.77;4.97;;;24.10;34.30;;;;;;5077342;28;20459;-61
2021/04/01 11:58:43;;;;;;;11.37;4.87;;;24.10;34.30;;;;;;5079934;28;20593;-60
2021/04/01 12:01:33;;;;;;;12.80;4.53;;;24.30;33.70;;;;;;5079867;28;20440;-63
2021/04/01 12:04:08;;;;;;;8.73;4.67;;;24.50;33.10;;;;;;5080466;28;20916;-60
2021/04/01 12:06:36;;;;;;;19.33;4.90;;;24.50;33.00;;;;;;5084218;28;20556;-60
2021/04/01 12:09:02;;;;;;;9.57;4.60;;;24.70;33.30;;;;;;5092763;28;20719;-59
2021/04/01 12:11:42;;;;;;;9.53;4.20;;;24.80;32.80;;;;;;5091401;28;20449;-60
2021/04/01 12:14:15;;;;;;;9.63;4.23;;;25.00;32.90;;;;;;5092353;28;21120;-60
2021/04/01 12:16:41;;;;;;;12.23;4.10;;;25.20;32.50;;;;;;5086535;28;20444;-60
2021/04/01 12:19:07;;;;;;;7.73;3.93;;;25.40;32.60;;;;;;5089110;28;20424;-60
2021/04/01 12:21:34;;;;;;;11.13;4.13;;;25.50;32.40;;;;;;5089930;28;20184;-60
2021/04/01 12:24:05;;;;;;;13.40;4.07;;;25.50;32.90;;;;;;5082553;28;20433;-60
2021/04/01 12:26:53;;;;;;;11.27;4.27;;;25.60;32.80;;;;;;5082414;28;20446;-60
2021/04/01 12:29:19;;;;;;;11.40;4.70;;;25.80;32.20;;;;;;5096512;28;20424;-61
2021/04/01 12:31:58;;;;;;;11.43;5.17;;;25.90;32.30;;;;;;5089772;28;20525;-60
2021/04/01 12:34:27;;;;;;;9.13;4.37;;;25.80;31.60;;;;;;5079084;28;20197;-60
2021/04/01 12:36:53;;;;;;;9.90;4.97;;;25.70;32.30;;;;;;5086168;28;20455;-62
2021/04/01 12:39:29;;;;;;;12.67;4.33;;;25.20;31.50;;;;;;5086794;28;20419;-60
2021/04/01 12:41:54;;;;;;;18.87;4.70;;;24.70;33.50;;;;;;5086293;28;20192;-64
2021/04/01 12:44:20;;;;;;;8.23;4.93;;;24.30;33.00;;;;;;5080866;28;20831;-62
2021/04/01 12:46:46;;;;;;;7.40;3.67;;;24.20;32.70;;;;;;5085292;28;20690;-63
2021/04/01 12:49:22;;;;;;;9.50;4.30;;;24.30;32.70;;;;;;5089522;28;20174;-61
2021/04/01 12:51:52;;;;;;;11.52;4.55;;;24.60;33.40;;;;;;5089175;28;20428;-62
2021/04/01 12:54:24;;;;;;;9.43;4.30;;;24.80;32.20;;;;;;5090383;28;20190;-63
2021/04/01 12:56:57;;;;;;;14.60;4.00;;;24.70;31.70;;;;;;5085591;28;20478;-62
2021/04/01 12:59:36;;;;;;;9.13;4.37;;;24.60;33.00;;;;;;5082871;28;20424;-62
2021/04/01 13:02:10;;;;;;;12.40;4.83;;;24.90;32.80;;;;;;5078913;28;20442;-64
2021/04/01 13:04:38;;;;;;;7.73;3.97;;;25.10;32.30;;;;;;5081451;28;20522;-63
2021/04/01 13:09:44;;;;;;;9.40;4.97;;;24.70;31.50;;;;;;5081394;28;20454;-63
2021/04/01 13:12:15;;;;;;;9.50;5.03;;;24.30;32.40;;;;;;5080130;28;20512;-64
2021/04/01 13:14:42;;;;;;;10.70;4.07;;;23.90;33.20;;;;;;5081172;28;20463;-63
2021/04/01 13:17:08;;;;;;;9.03;4.60;;;23.60;33.10;;;;;;5076346;28;20452;-64
2021/04/01 13:19:34;;;;;;;7.47;4.73;;;23.30;33.00;;;;;;5079002;28;20427;-63
2021/04/01 13:27:02;;;;;;;12.77;5.07;;;22.50;34.40;;;;;;5084225;28;20466;-61
2021/04/01 13:29:32;;;;;;;41.17;26.10;;;22.40;36.70;;;;;;5083243;28;20435;-63
2021/04/01 13:32:02;;;;;;;14.70;5.70;;;22.30;39.10;;;;;;5080056;28;20485;-64
2021/04/01 13:34:46;;;;;;;17.03;7.20;;;22.30;40.30;;;;;;5082357;28;20466;-63
2021/04/01 13:37:16;;;;;;;14.10;6.20;;;22.20;40.60;;;;;;5083607;28;20433;-64
2021/04/01 13:39:47;;;;;;;13.98;5.30;;;22.10;39.60;;;;;;5085899;28;20446;-63
2021/04/01 13:44:54;;;;;;;9.37;4.63;;;21.90;41.40;;;;;;5086060;28;20438;-64
2021/04/01 13:47:21;;;;;;;6.40;4.40;;;21.90;41.10;;;;;;5084624;28;20485;-63
2021/04/01 13:49:49;;;;;;;12.23;4.63;;;21.80;41.10;;;;;;5085024;28;20435;-64
2021/04/01 13:52:27;;;;;;;12.90;5.60;;;21.70;39.70;;;;;;5086860;28;20166;-64
2021/04/01 14:00:20;;;;;;;8.83;4.90;;;21.60;40.50;;;;;;5091529;28;20194;-66
2021/04/01 14:11:15;;;;;;;17.33;5.00;;;21.80;40.30;;;;;;5082789;28;20434;-63
2021/04/01 14:13:41;;;;;;;8.67;5.00;;;21.60;41.10;;;;;;5085813;28;20523;-64
2021/04/01 14:16:07;;;;;;;13.03;5.00;;;21.50;42.60;;;;;;5083497;28;20550;-64
2021/04/01 14:18:33;;;;;;;13.10;5.43;;;21.40;44.70;;;;;;5083102;28;20464;-63
2021/04/01 14:21:03;;;;;;;8.60;4.67;;;21.30;45.70;;;;;;5085018;28;20645;-63
2021/04/01 14:23:30;;;;;;;18.90;6.00;;;21.10;47.00;;;;;;5088066;28;21105;-63
2021/04/01 14:26:01;;;;;;;12.37;5.80;;;20.90;47.80;;;;;;5083865;28;20459;-61
2021/04/01 14:28:27;;;;;;;16.37;5.33;;;20.80;48.60;;;;;;5085821;28;20776;-58
2021/04/01 14:30:52;;;;;;;14.57;5.03;;;20.70;49.00;;;;;;5088749;28;20446;-59
2021/04/01 14:33:21;;;;;;;15.43;5.90;;;20.50;49.20;;;;;;5070120;28;20178;-57
2021/04/01 14:35:48;;;;;;;11.20;4.90;;;20.30;49.00;;;;;;5085048;28;20219;-61
2021/04/01 14:38:15;;;;;;;10.10;5.40;;;20.10;48.90;;;;;;5084023;28;20434;-61
2021/04/01 14:40:55;;;;;;;14.33;5.17;;;19.90;49.30;;;;;;5085154;28;20440;-61
2021/04/01 14:43:26;;;;;;;13.40;5.13;;;19.70;49.50;;;;;;5076532;28;20437;-61
2021/04/01 14:45:51;;;;;;;10.83;4.77;;;19.70;49.80;;;;;;5079387;28;20838;-61